Flight Track Log - Related Links

Times and Time Zones

All times are in EDT time to prevent confusion due to time zone crossing. See the CTL17 flight status page for this flight to view local times or setup timezone preferences in your user account.

Time Position Orientation Groundspeed Altitude Reporting Facility
EDT Latitude Longitude Course Direction KTS MPH feet Rate Location/Type
Tue 05:37:18 PM 42.2669 -83.5772 309° West 120 138 2,600  Level Cleveland Center
Tue 05:38:25 PM 42.2869 -83.6144 306° West 129 148 3,500 797 Climbing Cleveland Center
Tue 05:39:26 PM 42.2817 -83.5722 100° East 124 143 4,300 787 Climbing Cleveland Center
Tue 05:40:27 PM 42.2617 -83.5347 126° Southeast 122 140 5,100 414 Climbing Cleveland Center
Tue 05:41:22 PM 42.2422 -83.4889 120° Southeast 163 188 5,100  Level Cleveland Center
Tue 05:42:28 PM 42.2164 -83.4344 123° Southeast 168 193 5,100  Level Cleveland Center
Tue 05:43:24 PM 42.1925 -83.3831 122° Southeast 163 188 5,100  Level Cleveland Center
Tue 05:44:19 PM 42.1708 -83.3344 121° Southeast 162 186 5,100  Level Cleveland Center
Tue 05:45:25 PM 42.1450 -83.2772 121° Southeast 166 191 5,100 -47 Level Cleveland Center
Tue 05:46:26 PM 42.1214 -83.2231 120° Southeast 161 185 5,000  Descending Cleveland Center
Tue 05:47:27 PM 42.0997 -83.1719 120° Southeast 160 184 5,100 49 Climbing Cleveland Center
Tue 05:48:28 PM 42.0736 -83.1203 124° Southeast 161 185 5,100  Level Cleveland Center
Tue 05:49:29 PM 42.0497 -83.0692 122° Southeast 163 188 5,100  Level Cleveland Center
Tue 05:50:25 PM 42.0278 -83.0208 121° Southeast 159 183 5,100  Level Cleveland Center
Tue 05:51:26 PM 42.0058 -82.9725 121° Southeast 159 183 5,100  Level Cleveland Center
Tue 05:52:33 PM 41.9781 -82.9156 123° Southeast 160 184 5,100  Level Cleveland Center
Tue 05:53:28 PM 41.9581 -82.8728 122° Southeast 161 185 5,100  Level Cleveland Center
Tue 05:54:35 PM 41.9300 -82.8106 121° Southeast 160 184 5,100  Level Cleveland Center
Tue 05:55:13 PM 41.9139 -82.7819 127° Southeast 161 185 5,100  Level Cleveland Center
Tue 05:56:08 PM 41.8917 -82.7394 125° Southeast 160 184 5,100  Level Cleveland Center
Tue 05:57:08 PM 41.8697 -82.6856 119° Southeast 159 183 5,100 50 Level Cleveland Center
Tue 05:58:09 PM 41.8436 -82.6317 123° Southeast 157 181 5,200  Climbing Cleveland Center
Tue 05:59:28 PM 41.8178 -82.5669 118° Southeast 159 183 5,100 -47 Descending Cleveland Center
Tue 06:00:17 PM 41.8039 -82.5247 114° Southeast 159 183 5,100 -55 Level Cleveland Center
Tue 06:01:18 PM 41.7839 -82.4711 117° Southeast 160 184 5,000 -375 Descending Cleveland Center
Tue 06:02:25 PM 41.7578 -82.4036 117° Southeast 174 200 4,300 -520 Descending Cleveland Center
Tue 06:03:25 PM 41.7339 -82.3444 118° Southeast 181 208 3,900 -496 Descending Cleveland Center
Tue 06:04:26 PM 41.7139 -82.2856 114° Southeast 177 204 3,300 -393 Descending Cleveland Center
Tue 06:05:27 PM 41.6875 -82.2264 121° Southeast 174 200 3,100 -94 Descending Cleveland Center
Tue 06:06:34 PM 41.6886 -82.1625 89° East 153 176 3,100  Level Cleveland Center
Tue 06:07:35 PM 41.6975 -82.1042 78° East 157 181 3,100  Level Cleveland Center
Tue 06:08:30 PM 41.7003 -82.0517 86° East 159 183 3,100 -50 Level Cleveland Center
Tue 06:09:36 PM 41.6908 -81.9931 102° East 162 186 3,000  Descending Cleveland Center
Tue 06:10:31 PM 41.6514 -81.9669 154° Southeast 167 192 3,100 -197 Climbing Cleveland Center
Tue 06:11:38 PM 41.6061 -81.9328 151° Southeast 174 200 2,600 -469 Descending Cleveland Center
Tue 06:12:39 PM 41.6086 -81.8717 87° East 160 184 2,100 -310 Descending Cleveland Center
Tue 06:13:34 PM 41.6053 -81.8217 95° East 150 173 2,000 -164 Descending Cleveland Center
Tue 06:14:29 PM 41.5700 -81.7989 154° Southeast 163 188 1,800 -198 Descending Cleveland Center
Tue 06:15:35 PM 41.5328 -81.7619 143° Southeast 153 176 1,600 -283 Descending Cleveland Center
Tue 06:16:36 PM 41.5039 -81.7228 135° Southeast 135 155 1,200 -393 Descending Cleveland Center
Tue 06:18:00 PM 41.5175 -81.6833 108° East  Level Estimated
Tue 06:25:00 PM 41.5175 -81.6833 108° East  Level Estimated

Login

Don't have an account? Register now (free) for customized features, flight alerts, and more!